createdAt,value
2024-05-09T00:00:52.318Z,69.60
2024-05-09T00:03:21.775Z,69.94
2024-05-09T00:05:51.212Z,69.95
2024-05-09T00:08:20.621Z,69.35
2024-05-09T00:10:50.217Z,69.64
2024-05-09T00:13:19.632Z,70.47
2024-05-09T00:15:48.960Z,69.74
2024-05-09T00:18:15.913Z,70.02
2024-05-09T00:20:45.498Z,69.69
2024-05-09T00:23:14.913Z,69.95
2024-05-09T00:25:44.653Z,70.29
2024-05-09T00:28:14.445Z,69.93
2024-05-09T00:30:43.776Z,69.77
2024-05-09T00:33:13.864Z,69.98
2024-05-09T00:35:43.773Z,70.09
2024-05-09T00:38:13.295Z,70.03
2024-05-09T00:40:43.699Z,70.13
2024-05-09T00:43:14.502Z,70.37
2024-05-09T00:45:44.602Z,70.64
2024-05-09T00:48:16.444Z,70.90
2024-05-09T00:50:49.050Z,70.66
2024-05-09T00:53:18.778Z,70.62
2024-05-09T00:55:48.290Z,71.10
2024-05-09T00:58:17.697Z,70.38
2024-05-09T01:00:47.164Z,71.09
2024-05-09T01:03:16.631Z,71.07
2024-05-09T01:05:46.175Z,71.39
2024-05-09T01:08:15.618Z,71.15
2024-05-09T01:10:46.174Z,71.11
2024-05-09T01:13:17.497Z,71.01
2024-05-09T01:15:48.175Z,71.43
2024-05-09T01:18:17.692Z,71.40
2024-05-09T01:20:47.261Z,71.18
2024-05-09T01:23:16.877Z,70.87
2024-05-09T01:25:46.964Z,71.17
2024-05-09T01:28:16.694Z,71.20
2024-05-09T01:30:46.028Z,71.10
2024-05-09T01:33:15.500Z,71.11
2024-05-09T01:35:45.316Z,71.50
2024-05-09T01:38:17.535Z,71.43
2024-05-09T01:40:47.103Z,71.09
2024-05-09T01:43:16.503Z,71.38
2024-05-09T01:45:45.831Z,71.02
2024-05-09T01:48:15.401Z,71.92
2024-05-09T01:50:44.926Z,71.47
2024-05-09T01:53:15.148Z,72.20
2024-05-09T01:55:44.920Z,71.63
2024-05-09T01:58:14.324Z,72.19
2024-05-09T02:00:43.904Z,72.10
2024-05-09T02:03:16.167Z,71.65
2024-05-09T02:05:47.717Z,71.76
2024-05-09T02:08:18.245Z,71.94
2024-05-09T02:10:48.217Z,72.05
2024-05-09T02:13:17.760Z,71.90
2024-05-09T02:15:47.151Z,72.27
2024-05-09T02:18:16.647Z,71.97
2024-05-09T02:20:46.151Z,71.90
2024-05-09T02:23:15.728Z,72.21
2024-05-09T02:25:45.158Z,72.37
2024-05-09T02:28:14.507Z,72.27
2024-05-09T02:30:43.907Z,72.24
2024-05-09T02:33:14.438Z,72.67
2024-05-09T02:35:44.512Z,72.33
2024-05-09T02:38:11.432Z,72.22
2024-05-09T02:40:41.024Z,72.34
2024-05-09T02:43:08.277Z,72.71
2024-05-09T02:45:38.503Z,72.47
2024-05-09T02:48:05.363Z,72.72
2024-05-09T02:50:39.071Z,72.66
2024-05-09T02:53:06.888Z,72.13
2024-05-09T02:55:36.258Z,72.70
2024-05-09T02:58:02.961Z,72.71
2024-05-09T03:00:38.544Z,72.51
2024-05-09T03:03:09.063Z,72.66
2024-05-09T03:05:40.069Z,72.71
2024-05-09T03:08:07.159Z,72.23
2024-05-09T03:10:38.527Z,72.48
2024-05-09T03:13:06.101Z,72.17
2024-05-09T03:15:35.434Z,72.83
2024-05-09T03:18:02.399Z,72.61
2024-05-09T03:20:34.907Z,72.70
2024-05-09T03:23:06.005Z,73.08
2024-05-09T03:25:33.101Z,72.72
2024-05-09T03:28:02.559Z,72.79
2024-05-09T03:30:36.292Z,73.30
2024-05-09T03:33:11.235Z,72.81
2024-05-09T03:35:38.249Z,73.03
2024-05-09T03:38:07.611Z,72.82
2024-05-09T03:40:37.072Z,72.97
2024-05-09T03:43:06.399Z,72.48
2024-05-09T03:45:35.806Z,73.08
2024-05-09T03:48:02.704Z,72.90
2024-05-09T03:50:35.567Z,73.07
2024-05-09T03:53:03.502Z,73.03
2024-05-09T03:55:32.951Z,73.10
2024-05-09T03:57:59.845Z,73.18
2024-05-09T04:00:36.915Z,73.04
2024-05-09T04:03:07.286Z,73.18
2024-05-09T04:05:40.017Z,73.15
2024-05-09T04:08:07.464Z,72.87
2024-05-09T04:10:36.927Z,72.96
2024-05-09T04:13:04.166Z,73.12
2024-05-09T04:15:33.797Z,73.19
2024-05-09T04:18:01.306Z,73.37
2024-05-09T04:20:38.089Z,72.88
2024-05-09T04:23:08.253Z,73.13
2024-05-09T04:25:38.473Z,72.73
2024-05-09T04:28:05.311Z,72.89
2024-05-09T04:30:39.017Z,72.86
2024-05-09T04:33:10.293Z,72.94
2024-05-09T04:35:42.301Z,72.76
2024-05-09T04:38:09.550Z,72.48
2024-05-09T04:40:38.925Z,72.19
2024-05-09T04:43:05.933Z,72.21
2024-05-09T04:45:35.910Z,72.08
2024-05-09T04:48:03.090Z,71.69
2024-05-09T04:50:37.037Z,71.36
2024-05-09T04:53:06.228Z,71.50
2024-05-09T04:55:37.788Z,71.08
2024-05-09T04:58:05.113Z,70.79
2024-05-09T05:00:37.212Z,71.21
2024-05-09T05:03:07.446Z,70.42
2024-05-09T05:05:37.885Z,70.50
2024-05-09T05:08:04.903Z,70.27
2024-05-09T05:10:36.545Z,70.24
2024-05-09T05:13:17.681Z,70.01
2024-05-09T05:15:47.972Z,69.56
2024-05-09T05:18:15.219Z,69.74
2024-05-09T05:20:44.826Z,69.61
2024-05-09T05:23:11.830Z,70.01
2024-05-09T05:25:41.240Z,69.68
2024-05-09T05:28:08.047Z,69.94
2024-05-09T05:30:37.800Z,69.42
2024-05-09T05:33:04.728Z,69.09
2024-05-09T05:35:34.935Z,68.81
2024-05-09T05:38:01.902Z,68.74
2024-05-09T05:40:36.428Z,68.73
2024-05-09T05:43:04.913Z,68.67
2024-05-09T05:45:34.271Z,67.91
2024-05-09T05:48:01.153Z,68.19
2024-05-09T05:50:35.855Z,67.73
2024-05-09T05:53:04.513Z,67.87
2024-05-09T05:55:34.126Z,68.07
2024-05-09T05:58:00.829Z,67.66
2024-05-09T06:00:37.679Z,67.54
2024-05-09T06:03:06.685Z,67.74
2024-05-09T06:05:36.207Z,67.38
2024-05-09T06:08:03.023Z,67.68
2024-05-09T06:10:38.163Z,67.70
2024-05-09T06:13:07.031Z,67.27
2024-05-09T06:15:36.456Z,67.49
2024-05-09T06:18:03.291Z,67.97
2024-05-09T06:20:36.449Z,67.60
2024-05-09T06:23:05.120Z,67.44
2024-05-09T06:25:34.717Z,67.23
2024-05-09T06:28:01.537Z,67.55
2024-05-09T06:30:38.595Z,66.75
2024-05-09T06:33:08.520Z,66.91
2024-05-09T06:35:39.104Z,66.54
2024-05-09T06:38:06.011Z,67.09
2024-05-09T06:40:38.543Z,66.35
2024-05-09T06:43:06.873Z,67.01
2024-05-09T06:45:37.174Z,66.64
2024-05-09T06:48:04.253Z,66.70
2024-05-09T06:50:37.638Z,66.73
2024-05-09T06:53:06.066Z,66.57
2024-05-09T06:55:35.615Z,65.87
2024-05-09T06:58:02.315Z,66.25
2024-05-09T07:00:38.561Z,65.57
2024-05-09T07:03:07.824Z,65.69
2024-05-09T07:05:37.469Z,65.77
2024-05-09T07:08:04.393Z,65.59
2024-05-09T07:10:35.549Z,66.33
2024-05-09T07:13:03.139Z,66.02
2024-05-09T07:15:32.516Z,66.02
2024-05-09T07:17:59.358Z,65.85
2024-05-09T07:20:34.428Z,65.90
2024-05-09T07:23:02.050Z,65.33
2024-05-09T07:25:31.705Z,65.46
2024-05-09T07:27:58.535Z,65.09
2024-05-09T07:30:33.284Z,65.27
2024-05-09T07:33:02.264Z,65.25
2024-05-09T07:35:32.570Z,63.64
2024-05-09T07:37:59.549Z,64.15
2024-05-09T07:40:35.440Z,63.96
2024-05-09T07:43:03.733Z,63.52
2024-05-09T07:52:23.989Z,62.79
2024-05-09T07:53:39.110Z,63.59
2024-05-09T07:56:12.253Z,63.24
2024-05-09T07:58:39.351Z,62.92
2024-05-09T08:01:08.975Z,62.91
2024-05-09T08:03:35.867Z,63.08
2024-05-09T08:06:05.335Z,62.50
2024-05-09T08:08:32.111Z,62.46
2024-05-09T08:11:01.655Z,62.47
2024-05-09T08:13:28.379Z,62.42
2024-05-09T08:15:57.915Z,62.37
2024-05-09T08:18:25.281Z,62.78
2024-05-09T08:20:54.690Z,62.70
2024-05-09T08:23:21.423Z,62.72
2024-05-09T08:25:50.951Z,62.47
2024-05-09T08:28:17.845Z,62.57
2024-05-09T08:30:47.641Z,62.26
2024-05-09T08:33:14.918Z,61.35
2024-05-09T08:35:44.426Z,61.78
2024-05-09T08:38:11.226Z,61.65
2024-05-09T08:40:41.311Z,61.52
2024-05-09T08:43:08.368Z,61.51
2024-05-09T08:45:39.142Z,61.62
2024-05-09T08:48:07.871Z,61.14
2024-05-09T08:50:39.498Z,60.69
2024-05-09T08:53:06.976Z,60.49
2024-05-09T08:55:40.283Z,60.50
2024-05-09T08:58:09.740Z,60.49
2024-05-09T09:00:39.514Z,60.11
2024-05-09T09:03:06.517Z,59.91
2024-05-09T09:05:36.356Z,59.72
2024-05-09T09:08:03.243Z,59.51
2024-05-09T09:10:33.422Z,59.28
2024-05-09T09:13:00.890Z,58.72
2024-05-09T09:15:30.628Z,58.57
2024-05-09T09:17:58.248Z,58.43
2024-05-09T09:20:35.665Z,57.79
2024-05-09T09:23:04.630Z,57.80
2024-05-09T09:25:34.338Z,57.13
2024-05-09T09:28:01.137Z,57.13
2024-05-09T09:30:36.736Z,57.01
2024-05-09T09:33:05.509Z,56.20
2024-05-09T09:35:36.004Z,55.79
2024-05-09T09:38:03.196Z,55.49
2024-05-09T09:40:34.944Z,55.42
2024-05-09T09:43:04.257Z,54.87
2024-05-09T09:45:33.991Z,53.90
2024-05-09T09:48:00.989Z,53.57
2024-05-09T09:50:34.467Z,51.86
2024-05-09T09:53:01.974Z,51.90
2024-05-09T09:55:31.515Z,51.38
2024-05-09T09:57:58.386Z,49.67
2024-05-09T10:00:32.784Z,49.33
2024-05-09T10:03:01.603Z,48.62
2024-05-09T10:05:32.133Z,47.87
2024-05-09T10:07:59.043Z,48.59
2024-05-09T10:10:32.448Z,47.66
2024-05-09T10:13:00.337Z,47.39
2024-05-09T10:15:30.202Z,47.09
2024-05-09T10:17:57.094Z,46.91
2024-05-09T10:20:30.899Z,46.60
2024-05-09T10:22:59.452Z,46.19
2024-05-09T10:25:29.014Z,46.38
2024-05-09T10:27:56.012Z,45.67
2024-05-09T10:30:34.003Z,44.61
2024-05-09T10:33:03.221Z,45.15
2024-05-09T10:35:32.940Z,44.93
2024-05-09T10:37:59.642Z,44.43
2024-05-09T10:40:31.512Z,43.86
2024-05-09T10:43:00.501Z,43.45
2024-05-09T10:45:32.109Z,43.93
2024-05-09T10:47:59.159Z,43.30
2024-05-09T10:50:32.078Z,43.30
2024-05-09T10:53:01.038Z,42.64
2024-05-09T10:55:30.709Z,42.94
2024-05-09T10:57:57.639Z,42.58
2024-05-09T11:00:33.050Z,41.92
2024-05-09T11:03:02.557Z,41.50
2024-05-09T11:05:34.104Z,41.48
2024-05-09T11:08:01.024Z,41.22
2024-05-09T11:10:33.982Z,40.88
2024-05-09T11:13:01.423Z,40.73
2024-05-09T11:15:31.073Z,40.55
2024-05-09T11:17:58.115Z,40.15
2024-05-09T11:20:29.935Z,39.96
2024-05-09T11:22:57.137Z,40.22
2024-05-09T11:25:27.032Z,39.37
2024-05-09T11:27:53.946Z,39.26
2024-05-09T11:30:29.806Z,39.21
2024-05-09T11:32:59.074Z,38.91
2024-05-09T11:35:29.554Z,38.86
2024-05-09T11:37:56.342Z,38.22
2024-05-09T11:40:32.248Z,38.68
2024-05-09T11:43:01.300Z,38.18
2024-05-09T11:45:30.884Z,37.94
2024-05-09T11:47:57.907Z,37.10
2024-05-09T11:50:32.831Z,37.49
2024-05-09T11:53:02.455Z,37.46
2024-05-09T11:55:36.489Z,37.14
2024-05-09T11:58:03.673Z,37.42
2024-05-09T12:00:37.188Z,37.33
2024-05-09T12:03:05.601Z,37.15
2024-05-09T12:05:35.723Z,36.81
2024-05-09T12:08:02.741Z,36.65
2024-05-09T12:10:35.207Z,36.41
2024-05-09T12:13:05.534Z,36.07
2024-05-09T12:15:37.876Z,35.94
2024-05-09T12:18:05.713Z,35.56
2024-05-09T12:20:38.647Z,35.97
2024-05-09T12:23:06.999Z,35.99
2024-05-09T12:25:36.585Z,36.20
2024-05-09T12:28:03.590Z,36.11
2024-05-09T12:30:38.044Z,35.93
2024-05-09T12:33:07.437Z,35.86
2024-05-09T12:35:37.209Z,35.95
2024-05-09T12:38:04.039Z,35.48
2024-05-09T12:40:37.038Z,35.03
2024-05-09T12:43:05.644Z,35.33
2024-05-09T12:45:35.243Z,35.10
2024-05-09T12:48:02.354Z,34.99
2024-05-09T12:50:34.006Z,35.19
2024-05-09T12:53:02.056Z,34.89
2024-05-09T12:55:40.541Z,34.92
2024-05-09T12:58:15.299Z,35.16
2024-05-09T13:00:45.702Z,35.07
2024-05-09T13:03:13.128Z,34.71
2024-05-09T13:05:45.152Z,34.55
2024-05-09T13:08:12.562Z,34.59
2024-05-09T13:10:42.155Z,34.12
2024-05-09T13:13:09.251Z,34.57
2024-05-09T13:15:39.582Z,34.17
2024-05-09T13:18:06.849Z,34.94
2024-05-09T13:20:37.008Z,35.77
2024-05-09T13:23:04.679Z,36.86
2024-05-09T13:25:35.089Z,36.73
2024-05-09T13:28:02.446Z,36.64
2024-05-09T13:30:39.302Z,35.97
2024-05-09T13:33:08.954Z,35.81
2024-05-09T13:35:38.935Z,36.09
2024-05-09T13:38:06.264Z,35.87
2024-05-09T13:40:36.603Z,36.11
2024-05-09T13:43:03.780Z,37.13
2024-05-09T13:45:33.851Z,38.17
2024-05-09T13:48:01.016Z,39.21
2024-05-09T13:50:34.835Z,38.68
2024-05-09T13:53:03.555Z,38.89
2024-05-09T13:55:33.203Z,37.53
2024-05-09T13:58:00.248Z,37.44
2024-05-09T14:00:42.078Z,36.41
2024-05-09T14:03:14.341Z,35.60
2024-05-09T14:05:44.357Z,35.79
2024-05-09T14:08:11.188Z,36.06
2024-05-09T14:10:44.788Z,36.39
2024-05-09T14:13:12.039Z,36.24
2024-05-09T14:15:41.634Z,36.03
2024-05-09T14:18:12.385Z,36.41
2024-05-09T14:20:43.511Z,36.27
2024-05-09T14:23:10.408Z,36.19
2024-05-09T14:25:42.472Z,37.31
2024-05-09T14:28:10.466Z,37.11
2024-05-09T14:30:40.252Z,36.75
2024-05-09T14:33:08.294Z,36.42
2024-05-09T14:35:39.183Z,36.71
2024-05-09T14:38:06.305Z,36.57
2024-05-09T14:40:41.259Z,36.90
2024-05-09T14:43:11.208Z,35.99
2024-05-09T14:45:41.076Z,34.91
2024-05-09T14:48:08.259Z,34.25
2024-05-09T14:50:39.727Z,33.61
2024-05-09T14:53:07.900Z,33.60
2024-05-09T14:55:39.994Z,33.19
2024-05-09T14:58:07.951Z,33.16
2024-05-09T15:00:39.415Z,32.82
2024-05-09T15:03:08.937Z,32.27
2024-05-09T15:05:38.538Z,32.04
2024-05-09T15:08:05.594Z,31.36
2024-05-09T15:10:36.805Z,30.77
2024-05-09T15:13:04.839Z,30.59
2024-05-09T15:15:34.640Z,29.95
2024-05-09T15:18:01.695Z,31.00
2024-05-09T15:20:35.405Z,31.51
2024-05-09T15:23:04.247Z,31.43
2024-05-09T15:25:33.953Z,31.89
2024-05-09T15:28:00.954Z,31.99
2024-05-09T15:30:33.060Z,32.59
2024-05-09T15:33:01.651Z,32.44
2024-05-09T15:35:31.263Z,33.22
2024-05-09T15:37:58.119Z,33.75
2024-05-09T15:40:36.221Z,33.55
2024-05-09T15:43:07.280Z,34.06
2024-05-09T15:45:37.344Z,34.46
2024-05-09T15:48:05.750Z,35.67
2024-05-09T15:50:39.507Z,35.85
2024-05-09T15:53:09.244Z,36.41
2024-05-09T15:55:39.735Z,37.86
2024-05-09T15:58:07.322Z,37.65
2024-05-09T16:00:41.046Z,38.52
2024-05-09T16:03:11.488Z,38.54
2024-05-09T16:05:42.457Z,38.50
2024-05-09T16:08:09.491Z,38.75
2024-05-09T16:10:43.526Z,38.76
2024-05-09T16:13:14.587Z,38.71
2024-05-09T16:15:41.701Z,38.24
2024-05-09T16:18:11.340Z,38.78
2024-05-09T16:20:41.262Z,38.06
2024-05-09T16:23:13.028Z,38.44
2024-05-09T16:25:39.844Z,38.30
2024-05-09T16:28:10.847Z,37.88
2024-05-09T16:30:38.338Z,37.58
2024-05-09T16:33:08.830Z,38.09
2024-05-09T16:35:36.531Z,39.55
2024-05-09T16:38:06.253Z,40.57
2024-05-09T16:40:38.736Z,41.59
2024-05-09T16:43:11.128Z,42.19
2024-05-09T16:45:38.294Z,42.51
2024-05-09T16:48:08.145Z,42.85
2024-05-09T16:50:35.999Z,43.69
2024-05-09T16:53:06.935Z,43.83
2024-05-09T16:55:34.655Z,44.31
2024-05-09T16:58:05.096Z,44.79
2024-05-09T17:00:40.185Z,45.32
2024-05-09T17:03:14.111Z,44.88
2024-05-09T17:05:42.983Z,45.87
2024-05-09T17:08:12.734Z,46.26
2024-05-09T17:10:39.986Z,45.80
2024-05-09T17:13:10.345Z,45.77
2024-05-09T17:15:40.058Z,46.17
2024-05-09T17:18:10.172Z,46.42
2024-05-09T17:20:39.787Z,47.04
2024-05-09T17:23:13.624Z,46.82
2024-05-09T17:25:43.980Z,46.80
2024-05-09T17:28:11.254Z,46.77
2024-05-09T17:30:42.582Z,46.51
2024-05-09T17:33:11.191Z,46.84
2024-05-09T17:35:42.079Z,47.51
2024-05-09T17:38:09.207Z,47.43
2024-05-09T17:40:39.542Z,47.36
2024-05-09T17:43:08.992Z,47.85
2024-05-09T17:45:41.166Z,47.19
2024-05-09T17:48:10.270Z,47.85
2024-05-09T17:50:41.614Z,48.13
2024-05-09T17:53:09.059Z,47.88
2024-05-09T17:55:38.918Z,47.92
2024-05-09T17:58:06.185Z,48.08
2024-05-09T18:00:39.735Z,48.29
2024-05-09T18:03:12.036Z,48.27
2024-05-09T18:05:44.061Z,48.26
2024-05-09T18:08:11.759Z,48.51
2024-05-09T18:10:41.981Z,48.13
2024-05-09T18:13:09.416Z,48.58
2024-05-09T18:15:39.620Z,48.49
2024-05-09T18:18:07.410Z,48.08
2024-05-09T18:20:43.143Z,48.60
2024-05-09T18:23:14.100Z,48.68
2024-05-09T18:25:44.706Z,49.13
2024-05-09T18:28:11.654Z,48.92
2024-05-09T18:30:41.680Z,49.44
2024-05-09T18:33:09.155Z,49.37
2024-05-09T18:35:39.006Z,50.17
2024-05-09T18:38:06.121Z,49.90
2024-05-09T18:40:37.797Z,50.23
2024-05-09T18:43:07.507Z,50.42
2024-05-09T18:45:39.096Z,50.58
2024-05-09T18:48:06.961Z,50.36
2024-05-09T18:50:39.571Z,50.87
2024-05-09T18:53:08.330Z,51.30
2024-05-09T18:55:38.108Z,50.86
2024-05-09T18:58:05.245Z,51.38
2024-05-09T19:00:38.451Z,51.46
2024-05-09T19:03:10.310Z,51.57
2024-05-09T19:05:43.694Z,51.90
2024-05-09T19:08:12.102Z,51.61
2024-05-09T19:10:41.978Z,52.11
2024-05-09T19:13:12.304Z,52.20
2024-05-09T19:15:44.077Z,52.49
2024-05-09T19:18:11.785Z,52.54
2024-05-09T19:20:41.853Z,52.09
2024-05-09T19:23:08.895Z,52.98
2024-05-09T19:25:38.533Z,53.25
2024-05-09T19:28:05.871Z,53.10
2024-05-09T19:30:40.300Z,52.70
2024-05-09T19:33:10.215Z,52.73
2024-05-09T19:35:40.848Z,52.93
2024-05-09T19:38:07.751Z,53.08
2024-05-09T19:40:37.805Z,53.62
2024-05-09T19:43:05.916Z,53.55
2024-05-09T19:45:36.684Z,53.85
2024-05-09T19:48:04.495Z,54.08
2024-05-09T19:50:41.518Z,53.71
2024-05-09T19:53:11.656Z,53.90
2024-05-09T19:55:41.544Z,54.19
2024-05-09T19:58:08.482Z,53.96
2024-05-09T20:00:40.762Z,54.37
2024-05-09T20:03:10.524Z,53.91
2024-05-09T20:05:40.396Z,54.50
2024-05-09T20:08:07.381Z,53.99
2024-05-09T20:10:37.709Z,54.33
2024-05-09T20:13:05.998Z,54.89
2024-05-09T20:15:37.168Z,55.38
2024-05-09T20:18:07.582Z,55.39
2024-05-09T20:20:39.234Z,55.81
2024-05-09T20:23:12.562Z,55.99
2024-05-09T20:25:39.566Z,55.86
2024-05-09T20:28:10.134Z,56.59
2024-05-09T20:30:37.439Z,56.21
2024-05-09T20:33:08.641Z,56.75
2024-05-09T20:35:36.728Z,56.07
2024-05-09T20:38:06.668Z,56.86
2024-05-09T20:40:37.150Z,57.23
2024-05-09T20:43:08.927Z,56.76
2024-05-09T20:45:44.380Z,57.31
2024-05-09T20:48:11.624Z,57.33
2024-05-09T20:50:42.643Z,57.27
2024-05-09T20:53:09.939Z,56.75
2024-05-09T20:55:39.969Z,57.17
2024-05-09T20:58:06.968Z,57.04
2024-05-09T21:00:40.538Z,56.90
2024-05-09T21:03:11.694Z,57.70
2024-05-09T21:05:42.153Z,58.59
2024-05-09T21:08:09.300Z,58.46
2024-05-09T21:10:39.192Z,58.14
2024-05-09T21:13:06.940Z,58.21
2024-05-09T21:15:37.081Z,58.21
2024-05-09T21:18:04.445Z,58.54
2024-05-09T21:20:35.183Z,58.53
2024-05-09T21:23:02.741Z,58.94
2024-05-09T21:25:33.015Z,58.98
2024-05-09T21:28:00.015Z,59.19
2024-05-09T21:30:38.618Z,59.20
2024-05-09T21:33:10.229Z,59.50
2024-05-09T21:35:41.299Z,59.95
2024-05-09T21:38:08.384Z,60.49
2024-05-09T21:40:38.661Z,59.91
2024-05-09T21:43:05.693Z,59.82
2024-05-09T21:45:35.362Z,60.17
2024-05-09T21:48:02.296Z,60.53
2024-05-09T21:50:38.978Z,60.73
2024-05-09T21:53:08.346Z,59.92
2024-05-09T21:55:37.884Z,59.93
2024-05-09T21:58:05.023Z,60.32
2024-05-09T22:00:38.336Z,60.34
2024-05-09T22:03:06.160Z,59.87
2024-05-09T22:05:36.435Z,60.37
2024-05-09T22:08:03.498Z,60.47
2024-05-09T22:10:35.517Z,60.24
2024-05-09T22:13:04.159Z,60.29
2024-05-09T22:15:36.156Z,60.81
2024-05-09T22:18:04.051Z,60.71
2024-05-09T22:20:37.642Z,60.83
2024-05-09T22:23:06.283Z,60.60
2024-05-09T22:25:35.764Z,60.77
2024-05-09T22:28:03.157Z,60.89
2024-05-09T22:30:37.291Z,61.23
2024-05-09T22:33:06.713Z,61.55
2024-05-09T22:35:36.364Z,61.69
2024-05-09T22:38:03.097Z,61.28
2024-05-09T22:40:42.215Z,61.98
2024-05-09T22:43:14.525Z,61.36
2024-05-09T22:45:44.194Z,62.05
2024-05-09T22:48:11.172Z,61.75
2024-05-09T22:50:40.695Z,62.16
2024-05-09T22:53:07.504Z,62.35
2024-05-09T22:55:36.906Z,61.99
2024-05-09T22:58:03.745Z,62.43
2024-05-09T23:00:33.434Z,62.10
2024-05-09T23:03:00.841Z,62.35
2024-05-09T23:05:30.895Z,62.47
2024-05-09T23:07:58.054Z,61.96
2024-05-09T23:10:32.409Z,62.70
2024-05-09T23:13:03.663Z,62.45
2024-05-09T23:15:33.493Z,62.29
2024-05-09T23:18:00.498Z,62.18
2024-05-09T23:20:36.877Z,62.20
2024-05-09T23:23:06.048Z,62.65
2024-05-09T23:25:35.422Z,62.38
2024-05-09T23:28:02.764Z,62.90
2024-05-09T23:30:37.887Z,62.97
2024-05-09T23:33:07.251Z,62.58
2024-05-09T23:35:36.831Z,62.74
2024-05-09T23:38:03.533Z,62.71
2024-05-09T23:43:02.668Z,63.03
2024-05-09T23:45:32.086Z,63.14
2024-05-09T23:47:58.957Z,63.04
2024-05-09T23:50:34.150Z,62.86
2024-05-09T23:53:04.089Z,63.69
2024-05-09T23:55:33.900Z,63.26
2024-05-09T23:58:00.905Z,63.33
